sensor_id;sensor_type;location;lat;lon;timestamp;P1;durP1;ratioP1;P2;durP2;ratioP2
45358;SDS011;31096;49.292;8.710;2023-02-07T00:04:11;7.17;;;3.93;;
45358;SDS011;31096;49.292;8.710;2023-02-07T00:09:03;6.53;;;3.72;;
45358;SDS011;31096;49.292;8.710;2023-02-07T00:13:57;7.63;;;3.83;;
45358;SDS011;31096;49.292;8.710;2023-02-07T00:18:49;7.72;;;4.20;;
45358;SDS011;31096;49.292;8.710;2023-02-07T00:23:41;6.20;;;3.60;;
45358;SDS011;31096;49.292;8.710;2023-02-07T00:28:33;6.20;;;3.15;;
45358;SDS011;31096;49.292;8.710;2023-02-07T00:33:24;6.78;;;3.78;;
45358;SDS011;31096;49.292;8.710;2023-02-07T00:38:14;7.25;;;3.80;;
45358;SDS011;31096;49.292;8.710;2023-02-07T00:43:05;7.23;;;4.17;;
45358;SDS011;31096;49.292;8.710;2023-02-07T00:47:56;6.13;;;3.20;;
45358;SDS011;31096;49.292;8.710;2023-02-07T00:52:46;7.90;;;3.83;;
45358;SDS011;31096;49.292;8.710;2023-02-07T00:57:37;7.93;;;4.37;;
45358;SDS011;31096;49.292;8.710;2023-02-07T01:02:28;9.87;;;4.97;;
45358;SDS011;31096;49.292;8.710;2023-02-07T01:07:18;7.25;;;4.10;;
45358;SDS011;31096;49.292;8.710;2023-02-07T01:12:09;7.17;;;3.40;;
45358;SDS011;31096;49.292;8.710;2023-02-07T01:17:00;6.23;;;3.33;;
45358;SDS011;31096;49.292;8.710;2023-02-07T01:21:50;6.68;;;3.20;;
45358;SDS011;31096;49.292;8.710;2023-02-07T01:26:41;8.30;;;4.85;;
45358;SDS011;31096;49.292;8.710;2023-02-07T01:31:32;8.67;;;4.20;;
45358;SDS011;31096;49.292;8.710;2023-02-07T01:36:23;8.02;;;4.57;;
45358;SDS011;31096;49.292;8.710;2023-02-07T01:41:15;8.53;;;4.63;;
45358;SDS011;31096;49.292;8.710;2023-02-07T01:46:06;8.95;;;4.60;;
45358;SDS011;31096;49.292;8.710;2023-02-07T01:50:57;10.17;;;4.37;;
45358;SDS011;31096;49.292;8.710;2023-02-07T01:55:53;9.90;;;5.53;;
45358;SDS011;31096;49.292;8.710;2023-02-07T02:00:46;11.00;;;5.63;;
45358;SDS011;31096;49.292;8.710;2023-02-07T02:05:37;12.93;;;6.43;;
45358;SDS011;31096;49.292;8.710;2023-02-07T02:10:53;10.30;;;5.23;;
45358;SDS011;31096;49.292;8.710;2023-02-07T02:37:43;12.47;;;6.37;;
45358;SDS011;31096;49.292;8.710;2023-02-07T02:42:45;14.95;;;6.38;;
45358;SDS011;31096;49.292;8.710;2023-02-07T02:47:48;12.00;;;6.18;;
45358;SDS011;31096;49.292;8.710;2023-02-07T02:52:40;10.77;;;5.53;;
45358;SDS011;31096;49.292;8.710;2023-02-07T03:18:20;13.20;;;7.00;;
45358;SDS011;31096;49.292;8.710;2023-02-07T03:23:37;10.67;;;5.23;;
45358;SDS011;31096;49.292;8.710;2023-02-07T03:28:29;12.57;;;6.03;;
45358;SDS011;31096;49.292;8.710;2023-02-07T03:33:20;11.60;;;5.63;;
45358;SDS011;31096;49.292;8.710;2023-02-07T03:38:13;11.93;;;5.97;;
45358;SDS011;31096;49.292;8.710;2023-02-07T03:47:57;13.23;;;5.87;;
45358;SDS011;31096;49.292;8.710;2023-02-07T03:52:48;13.48;;;6.75;;
45358;SDS011;31096;49.292;8.710;2023-02-07T03:57:39;13.27;;;6.73;;
45358;SDS011;31096;49.292;8.710;2023-02-07T04:02:29;10.48;;;5.22;;
45358;SDS011;31096;49.292;8.710;2023-02-07T04:07:20;13.87;;;7.07;;
45358;SDS011;31096;49.292;8.710;2023-02-07T04:12:11;12.20;;;6.57;;
45358;SDS011;31096;49.292;8.710;2023-02-07T04:17:02;14.30;;;7.07;;
45358;SDS011;31096;49.292;8.710;2023-02-07T04:21:52;12.48;;;6.75;;
45358;SDS011;31096;49.292;8.710;2023-02-07T04:26:43;14.60;;;7.43;;
45358;SDS011;31096;49.292;8.710;2023-02-07T04:31:34;15.43;;;7.20;;
45358;SDS011;31096;49.292;8.710;2023-02-07T04:36:26;12.25;;;6.30;;
45358;SDS011;31096;49.292;8.710;2023-02-07T04:41:18;13.10;;;6.50;;
45358;SDS011;31096;49.292;8.710;2023-02-07T04:46:09;16.50;;;7.43;;
45358;SDS011;31096;49.292;8.710;2023-02-07T04:51:00;15.17;;;6.77;;
45358;SDS011;31096;49.292;8.710;2023-02-07T04:55:51;16.10;;;8.40;;
45358;SDS011;31096;49.292;8.710;2023-02-07T05:00:43;12.03;;;6.70;;
45358;SDS011;31096;49.292;8.710;2023-02-07T05:05:37;12.82;;;8.05;;
45358;SDS011;31096;49.292;8.710;2023-02-07T05:10:31;13.63;;;7.77;;
45358;SDS011;31096;49.292;8.710;2023-02-07T05:15:22;13.20;;;7.15;;
45358;SDS011;31096;49.292;8.710;2023-02-07T05:20:13;13.87;;;7.50;;
45358;SDS011;31096;49.292;8.710;2023-02-07T05:25:03;13.38;;;7.22;;
45358;SDS011;31096;49.292;8.710;2023-02-07T05:29:55;13.83;;;6.57;;
45358;SDS011;31096;49.292;8.710;2023-02-07T05:34:48;13.30;;;7.65;;
45358;SDS011;31096;49.292;8.710;2023-02-07T05:39:38;12.23;;;7.37;;
45358;SDS011;31096;49.292;8.710;2023-02-07T05:44:29;16.73;;;8.77;;
45358;SDS011;31096;49.292;8.710;2023-02-07T05:49:20;13.82;;;7.03;;
45358;SDS011;31096;49.292;8.710;2023-02-07T05:54:10;15.33;;;7.17;;
45358;SDS011;31096;49.292;8.710;2023-02-07T05:59:01;11.67;;;6.90;;
45358;SDS011;31096;49.292;8.710;2023-02-07T06:03:52;14.95;;;7.72;;
45358;SDS011;31096;49.292;8.710;2023-02-07T06:08:42;14.52;;;8.00;;
45358;SDS011;31096;49.292;8.710;2023-02-07T06:13:33;13.83;;;7.50;;
45358;SDS011;31096;49.292;8.710;2023-02-07T06:18:24;13.95;;;7.28;;
45358;SDS011;31096;49.292;8.710;2023-02-07T06:23:14;15.18;;;8.13;;
45358;SDS011;31096;49.292;8.710;2023-02-07T06:28:05;16.87;;;8.17;;
45358;SDS011;31096;49.292;8.710;2023-02-07T06:32:56;14.73;;;7.53;;
45358;SDS011;31096;49.292;8.710;2023-02-07T06:37:46;12.98;;;7.45;;
45358;SDS011;31096;49.292;8.710;2023-02-07T06:42:37;10.67;;;6.30;;
45358;SDS011;31096;49.292;8.710;2023-02-07T06:47:28;11.90;;;6.90;;
45358;SDS011;31096;49.292;8.710;2023-02-07T06:52:18;15.97;;;7.87;;
45358;SDS011;31096;49.292;8.710;2023-02-07T06:57:09;13.55;;;7.35;;
45358;SDS011;31096;49.292;8.710;2023-02-07T07:02:00;17.03;;;8.60;;
45358;SDS011;31096;49.292;8.710;2023-02-07T07:06:52;15.38;;;7.47;;
45358;SDS011;31096;49.292;8.710;2023-02-07T07:11:43;13.00;;;7.57;;
45358;SDS011;31096;49.292;8.710;2023-02-07T07:16:33;13.13;;;6.90;;
45358;SDS011;31096;49.292;8.710;2023-02-07T07:21:24;13.00;;;6.40;;
45358;SDS011;31096;49.292;8.710;2023-02-07T07:26:16;16.00;;;8.63;;
45358;SDS011;31096;49.292;8.710;2023-02-07T07:31:07;15.27;;;7.80;;
45358;SDS011;31096;49.292;8.710;2023-02-07T07:35:58;16.40;;;8.67;;
45358;SDS011;31096;49.292;8.710;2023-02-07T07:40:50;12.23;;;7.50;;
45358;SDS011;31096;49.292;8.710;2023-02-07T07:45:40;15.67;;;8.10;;
45358;SDS011;31096;49.292;8.710;2023-02-07T07:50:31;18.48;;;8.35;;
45358;SDS011;31096;49.292;8.710;2023-02-07T07:55:24;12.85;;;7.05;;
45358;SDS011;31096;49.292;8.710;2023-02-07T08:00:15;13.13;;;7.60;;
45358;SDS011;31096;49.292;8.710;2023-02-07T08:05:08;15.27;;;7.35;;
45358;SDS011;31096;49.292;8.710;2023-02-07T08:09:59;13.90;;;8.02;;
45358;SDS011;31096;49.292;8.710;2023-02-07T08:14:49;13.90;;;7.43;;
45358;SDS011;31096;49.292;8.710;2023-02-07T08:19:40;11.93;;;6.80;;
45358;SDS011;31096;49.292;8.710;2023-02-07T08:24:31;11.85;;;6.65;;
45358;SDS011;31096;49.292;8.710;2023-02-07T08:29:23;12.75;;;6.05;;
45358;SDS011;31096;49.292;8.710;2023-02-07T08:34:14;12.73;;;7.10;;
45358;SDS011;31096;49.292;8.710;2023-02-07T08:39:04;13.82;;;7.60;;
45358;SDS011;31096;49.292;8.710;2023-02-07T08:43:55;11.20;;;5.80;;
45358;SDS011;31096;49.292;8.710;2023-02-07T08:48:46;13.10;;;6.60;;
45358;SDS011;31096;49.292;8.710;2023-02-07T08:53:37;14.48;;;8.23;;
45358;SDS011;31096;49.292;8.710;2023-02-07T08:58:27;12.87;;;6.30;;
45358;SDS011;31096;49.292;8.710;2023-02-07T09:03:18;13.88;;;7.00;;
45358;SDS011;31096;49.292;8.710;2023-02-07T09:08:09;15.93;;;7.73;;
45358;SDS011;31096;49.292;8.710;2023-02-07T09:13:00;13.97;;;6.73;;
45358;SDS011;31096;49.292;8.710;2023-02-07T09:17:50;14.13;;;7.53;;
45358;SDS011;31096;49.292;8.710;2023-02-07T09:22:41;14.87;;;7.87;;
45358;SDS011;31096;49.292;8.710;2023-02-07T09:27:55;17.15;;;8.75;;
45358;SDS011;31096;49.292;8.710;2023-02-07T09:32:46;12.67;;;7.33;;
45358;SDS011;31096;49.292;8.710;2023-02-07T09:37:37;17.35;;;9.15;;
45358;SDS011;31096;49.292;8.710;2023-02-07T09:47:24;14.52;;;7.93;;
45358;SDS011;31096;49.292;8.710;2023-02-07T09:52:17;15.73;;;7.63;;
45358;SDS011;31096;49.292;8.710;2023-02-07T09:57:22;15.27;;;8.00;;
45358;SDS011;31096;49.292;8.710;2023-02-07T10:02:31;14.47;;;7.70;;
45358;SDS011;31096;49.292;8.710;2023-02-07T10:07:27;16.80;;;8.98;;
45358;SDS011;31096;49.292;8.710;2023-02-07T10:12:27;17.05;;;9.27;;
45358;SDS011;31096;49.292;8.710;2023-02-07T10:17:45;13.05;;;7.22;;
45358;SDS011;31096;49.292;8.710;2023-02-07T10:34:02;13.68;;;6.45;;
45358;SDS011;31096;49.292;8.710;2023-02-07T10:39:05;18.73;;;9.52;;
45358;SDS011;31096;49.292;8.710;2023-02-07T10:44:16;12.32;;;6.72;;
45358;SDS011;31096;49.292;8.710;2023-02-07T10:49:28;18.15;;;8.93;;
45358;SDS011;31096;49.292;8.710;2023-02-07T10:54:21;13.17;;;8.23;;
45358;SDS011;31096;49.292;8.710;2023-02-07T11:04:38;15.85;;;7.22;;
45358;SDS011;31096;49.292;8.710;2023-02-07T11:09:32;16.70;;;7.40;;
45358;SDS011;31096;49.292;8.710;2023-02-07T11:14:26;15.48;;;7.55;;
45358;SDS011;31096;49.292;8.710;2023-02-07T11:19:18;16.77;;;8.40;;
45358;SDS011;31096;49.292;8.710;2023-02-07T11:24:16;16.10;;;8.40;;
45358;SDS011;31096;49.292;8.710;2023-02-07T11:29:20;16.53;;;8.57;;
45358;SDS011;31096;49.292;8.710;2023-02-07T11:39:42;14.68;;;7.80;;
45358;SDS011;31096;49.292;8.710;2023-02-07T11:44:33;12.82;;;6.35;;
45358;SDS011;31096;49.292;8.710;2023-02-07T11:49:38;11.82;;;5.97;;
45358;SDS011;31096;49.292;8.710;2023-02-07T11:54:31;13.87;;;7.67;;
45358;SDS011;31096;49.292;8.710;2023-02-07T11:59:23;11.85;;;6.80;;
45358;SDS011;31096;49.292;8.710;2023-02-07T12:04:36;11.20;;;6.18;;
45358;SDS011;31096;49.292;8.710;2023-02-07T12:14:28;14.88;;;7.75;;
45358;SDS011;31096;49.292;8.710;2023-02-07T12:19:32;13.37;;;7.43;;
45358;SDS011;31096;49.292;8.710;2023-02-07T12:25:10;13.13;;;6.88;;
45358;SDS011;31096;49.292;8.710;2023-02-07T12:29:53;19.35;;;9.50;;
45358;SDS011;31096;49.292;8.710;2023-02-07T12:46:13;13.20;;;6.80;;
45358;SDS011;31096;49.292;8.710;2023-02-07T12:56:27;12.57;;;6.82;;
45358;SDS011;31096;49.292;8.710;2023-02-07T13:02:18;14.80;;;7.13;;
45358;SDS011;31096;49.292;8.710;2023-02-07T13:18:04;12.95;;;7.55;;
45358;SDS011;31096;49.292;8.710;2023-02-07T13:23:37;12.77;;;6.63;;
45358;SDS011;31096;49.292;8.710;2023-02-07T13:28:44;12.13;;;6.97;;
45358;SDS011;31096;49.292;8.710;2023-02-07T13:33:53;11.73;;;6.25;;
45358;SDS011;31096;49.292;8.710;2023-02-07T13:44:21;11.40;;;5.88;;
45358;SDS011;31096;49.292;8.710;2023-02-07T13:49:25;11.43;;;6.20;;
45358;SDS011;31096;49.292;8.710;2023-02-07T13:59:34;13.18;;;6.38;;
45358;SDS011;31096;49.292;8.710;2023-02-07T14:04:27;12.27;;;7.03;;
45358;SDS011;31096;49.292;8.710;2023-02-07T14:09:44;14.18;;;7.22;;
45358;SDS011;31096;49.292;8.710;2023-02-07T14:14:37;13.97;;;7.00;;
45358;SDS011;31096;49.292;8.710;2023-02-07T14:24:34;12.93;;;7.13;;
45358;SDS011;31096;49.292;8.710;2023-02-07T14:34:18;11.25;;;6.25;;
45358;SDS011;31096;49.292;8.710;2023-02-07T14:44:07;13.10;;;6.35;;
45358;SDS011;31096;49.292;8.710;2023-02-07T14:59:36;11.55;;;6.60;;
45358;SDS011;31096;49.292;8.710;2023-02-07T15:04:34;11.63;;;6.63;;
45358;SDS011;31096;49.292;8.710;2023-02-07T15:09:25;10.32;;;5.85;;
45358;SDS011;31096;49.292;8.710;2023-02-07T15:14:21;12.10;;;6.13;;
45358;SDS011;31096;49.292;8.710;2023-02-07T15:19:21;12.35;;;6.47;;
45358;SDS011;31096;49.292;8.710;2023-02-07T15:24:38;11.77;;;6.32;;
45358;SDS011;31096;49.292;8.710;2023-02-07T15:29:35;12.52;;;6.68;;
45358;SDS011;31096;49.292;8.710;2023-02-07T15:34:30;10.85;;;5.80;;
45358;SDS011;31096;49.292;8.710;2023-02-07T15:39:22;10.20;;;5.73;;
45358;SDS011;31096;49.292;8.710;2023-02-07T15:44:18;11.57;;;5.18;;
45358;SDS011;31096;49.292;8.710;2023-02-07T15:54:39;10.77;;;5.30;;
45358;SDS011;31096;49.292;8.710;2023-02-07T15:59:34;10.73;;;6.15;;
45358;SDS011;31096;49.292;8.710;2023-02-07T16:04:28;11.53;;;6.53;;
45358;SDS011;31096;49.292;8.710;2023-02-07T16:09:34;9.70;;;5.28;;
45358;SDS011;31096;49.292;8.710;2023-02-07T16:14:29;14.13;;;6.43;;
45358;SDS011;31096;49.292;8.710;2023-02-07T16:19:28;13.05;;;6.70;;
45358;SDS011;31096;49.292;8.710;2023-02-07T16:24:22;14.68;;;7.28;;
45358;SDS011;31096;49.292;8.710;2023-02-07T16:29:21;11.83;;;6.63;;
45358;SDS011;31096;49.292;8.710;2023-02-07T16:34:14;12.77;;;7.03;;
45358;SDS011;31096;49.292;8.710;2023-02-07T16:39:09;12.98;;;6.93;;
45358;SDS011;31096;49.292;8.710;2023-02-07T16:44:01;11.65;;;6.32;;
45358;SDS011;31096;49.292;8.710;2023-02-07T16:48:56;15.85;;;7.68;;
45358;SDS011;31096;49.292;8.710;2023-02-07T16:53:46;14.00;;;7.17;;
45358;SDS011;31096;49.292;8.710;2023-02-07T16:58:37;15.38;;;7.70;;
45358;SDS011;31096;49.292;8.710;2023-02-07T17:03:28;13.88;;;8.00;;
45358;SDS011;31096;49.292;8.710;2023-02-07T17:08:21;17.42;;;7.10;;
45358;SDS011;31096;49.292;8.710;2023-02-07T17:13:15;12.37;;;6.27;;
45358;SDS011;31096;49.292;8.710;2023-02-07T17:18:09;12.50;;;6.53;;
45358;SDS011;31096;49.292;8.710;2023-02-07T17:23:01;10.07;;;6.13;;
45358;SDS011;31096;49.292;8.710;2023-02-07T17:27:51;14.27;;;7.70;;
45358;SDS011;31096;49.292;8.710;2023-02-07T17:32:42;14.03;;;7.40;;
45358;SDS011;31096;49.292;8.710;2023-02-07T17:37:33;14.40;;;7.93;;
45358;SDS011;31096;49.292;8.710;2023-02-07T17:42:24;15.10;;;7.33;;
45358;SDS011;31096;49.292;8.710;2023-02-07T17:47:15;16.38;;;8.15;;
45358;SDS011;31096;49.292;8.710;2023-02-07T17:52:06;14.00;;;7.70;;
45358;SDS011;31096;49.292;8.710;2023-02-07T17:56:58;13.25;;;7.68;;
45358;SDS011;31096;49.292;8.710;2023-02-07T18:01:49;14.43;;;7.57;;
45358;SDS011;31096;49.292;8.710;2023-02-07T18:06:40;14.90;;;7.53;;
45358;SDS011;31096;49.292;8.710;2023-02-07T18:11:31;15.43;;;7.70;;
45358;SDS011;31096;49.292;8.710;2023-02-07T18:16:24;16.40;;;8.45;;
45358;SDS011;31096;49.292;8.710;2023-02-07T18:21:16;14.77;;;7.17;;
45358;SDS011;31096;49.292;8.710;2023-02-07T18:26:08;13.95;;;6.88;;
45358;SDS011;31096;49.292;8.710;2023-02-07T18:31:08;15.15;;;7.60;;
45358;SDS011;31096;49.292;8.710;2023-02-07T18:36:01;13.00;;;6.95;;
45358;SDS011;31096;49.292;8.710;2023-02-07T18:40:52;14.70;;;7.50;;
45358;SDS011;31096;49.292;8.710;2023-02-07T18:45:43;16.47;;;7.47;;
45358;SDS011;31096;49.292;8.710;2023-02-07T18:50:34;11.70;;;6.90;;
45358;SDS011;31096;49.292;8.710;2023-02-07T18:55:24;12.38;;;7.00;;
45358;SDS011;31096;49.292;8.710;2023-02-07T19:00:15;15.23;;;7.87;;
45358;SDS011;31096;49.292;8.710;2023-02-07T19:05:06;12.98;;;7.00;;
45358;SDS011;31096;49.292;8.710;2023-02-07T19:09:57;13.57;;;6.50;;
45358;SDS011;31096;49.292;8.710;2023-02-07T19:14:47;13.07;;;7.40;;
45358;SDS011;31096;49.292;8.710;2023-02-07T19:19:38;13.52;;;6.80;;
45358;SDS011;31096;49.292;8.710;2023-02-07T19:24:29;12.10;;;6.00;;
45358;SDS011;31096;49.292;8.710;2023-02-07T19:29:21;14.18;;;7.35;;
45358;SDS011;31096;49.292;8.710;2023-02-07T19:34:18;14.35;;;7.40;;
45358;SDS011;31096;49.292;8.710;2023-02-07T19:39:08;14.33;;;7.60;;
45358;SDS011;31096;49.292;8.710;2023-02-07T19:44:01;13.32;;;6.68;;
45358;SDS011;31096;49.292;8.710;2023-02-07T19:48:53;11.95;;;6.25;;
45358;SDS011;31096;49.292;8.710;2023-02-07T19:53:46;10.67;;;5.43;;
45358;SDS011;31096;49.292;8.710;2023-02-07T19:58:41;14.55;;;7.63;;
45358;SDS011;31096;49.292;8.710;2023-02-07T20:03:36;12.13;;;6.90;;
45358;SDS011;31096;49.292;8.710;2023-02-07T20:08:28;12.73;;;7.43;;
45358;SDS011;31096;49.292;8.710;2023-02-07T20:13:25;13.32;;;6.68;;
45358;SDS011;31096;49.292;8.710;2023-02-07T20:18:18;15.40;;;7.23;;
45358;SDS011;31096;49.292;8.710;2023-02-07T20:23:10;12.00;;;6.95;;
45358;SDS011;31096;49.292;8.710;2023-02-07T20:28:02;14.27;;;7.47;;
45358;SDS011;31096;49.292;8.710;2023-02-07T20:32:55;14.10;;;7.68;;
45358;SDS011;31096;49.292;8.710;2023-02-07T20:37:46;14.02;;;7.18;;
45358;SDS011;31096;49.292;8.710;2023-02-07T20:42:38;13.67;;;6.77;;
45358;SDS011;31096;49.292;8.710;2023-02-07T20:47:28;16.40;;;7.83;;
45358;SDS011;31096;49.292;8.710;2023-02-07T20:52:19;15.27;;;7.63;;
45358;SDS011;31096;49.292;8.710;2023-02-07T20:57:10;13.30;;;8.03;;
45358;SDS011;31096;49.292;8.710;2023-02-07T21:02:00;14.17;;;7.10;;
45358;SDS011;31096;49.292;8.710;2023-02-07T21:06:51;13.70;;;7.05;;
45358;SDS011;31096;49.292;8.710;2023-02-07T21:11:46;13.17;;;8.20;;
45358;SDS011;31096;49.292;8.710;2023-02-07T21:16:39;13.05;;;7.20;;
45358;SDS011;31096;49.292;8.710;2023-02-07T21:21:29;13.23;;;7.87;;
45358;SDS011;31096;49.292;8.710;2023-02-07T21:26:20;15.93;;;7.43;;
45358;SDS011;31096;49.292;8.710;2023-02-07T21:31:19;13.53;;;8.27;;
45358;SDS011;31096;49.292;8.710;2023-02-07T21:36:11;12.35;;;6.40;;
45358;SDS011;31096;49.292;8.710;2023-02-07T21:41:06;13.07;;;6.70;;
45358;SDS011;31096;49.292;8.710;2023-02-07T21:51:08;11.20;;;6.10;;
45358;SDS011;31096;49.292;8.710;2023-02-07T21:56:15;12.00;;;5.87;;
45358;SDS011;31096;49.292;8.710;2023-02-07T22:01:10;13.85;;;6.00;;
45358;SDS011;31096;49.292;8.710;2023-02-07T22:06:04;10.43;;;5.25;;
45358;SDS011;31096;49.292;8.710;2023-02-07T22:10:56;11.13;;;6.40;;
45358;SDS011;31096;49.292;8.710;2023-02-07T22:15:54;11.18;;;5.95;;
45358;SDS011;31096;49.292;8.710;2023-02-07T22:20:44;12.23;;;6.60;;
45358;SDS011;31096;49.292;8.710;2023-02-07T22:25:38;12.40;;;6.53;;
45358;SDS011;31096;49.292;8.710;2023-02-07T22:30:30;12.05;;;7.00;;
45358;SDS011;31096;49.292;8.710;2023-02-07T22:35:23;13.68;;;6.90;;
45358;SDS011;31096;49.292;8.710;2023-02-07T22:40:14;13.27;;;6.57;;
45358;SDS011;31096;49.292;8.710;2023-02-07T22:45:05;13.88;;;7.22;;
45358;SDS011;31096;49.292;8.710;2023-02-07T22:49:56;13.07;;;6.97;;
45358;SDS011;31096;49.292;8.710;2023-02-07T22:54:47;14.03;;;7.70;;
45358;SDS011;31096;49.292;8.710;2023-02-07T22:59:38;14.05;;;8.10;;
45358;SDS011;31096;49.292;8.710;2023-02-07T23:04:28;16.83;;;8.23;;
45358;SDS011;31096;49.292;8.710;2023-02-07T23:09:19;15.77;;;8.43;;
45358;SDS011;31096;49.292;8.710;2023-02-07T23:14:10;13.82;;;7.55;;
45358;SDS011;31096;49.292;8.710;2023-02-07T23:19:03;16.20;;;8.57;;
45358;SDS011;31096;49.292;8.710;2023-02-07T23:24:00;11.95;;;7.03;;
45358;SDS011;31096;49.292;8.710;2023-02-07T23:28:53;12.48;;;7.13;;
45358;SDS011;31096;49.292;8.710;2023-02-07T23:33:44;12.30;;;7.30;;
45358;SDS011;31096;49.292;8.710;2023-02-07T23:38:35;12.85;;;7.35;;
45358;SDS011;31096;49.292;8.710;2023-02-07T23:43:26;13.10;;;6.97;;
45358;SDS011;31096;49.292;8.710;2023-02-07T23:48:17;13.77;;;7.03;;
45358;SDS011;31096;49.292;8.710;2023-02-07T23:53:08;12.53;;;6.17;;
45358;SDS011;31096;49.292;8.710;2023-02-07T23:57:58;11.35;;;5.75;;
